createdAt,value
2019-03-05T00:00:48.490Z,5.70
2019-03-05T00:03:16.018Z,5.70
2019-03-05T00:05:43.716Z,5.50
2019-03-05T00:08:11.352Z,5.40
2019-03-05T00:10:38.908Z,5.50
2019-03-05T00:13:07.205Z,5.50
2019-03-05T00:15:35.385Z,5.50
2019-03-05T00:18:02.991Z,5.50
2019-03-05T00:20:30.548Z,5.50
2019-03-05T00:22:58.094Z,5.50
2019-03-05T00:25:28.103Z,5.60
2019-03-05T00:28:07.262Z,5.70
2019-03-05T00:30:47.236Z,5.70
2019-03-05T00:33:29.307Z,5.70
2019-03-05T00:36:06.224Z,5.60
2019-03-05T00:38:40.651Z,5.60
2019-03-05T00:41:28.800Z,5.60
2019-03-05T00:44:04.201Z,5.70
2019-03-05T00:46:41.524Z,5.60
2019-03-05T00:49:12.863Z,5.70
2019-03-05T00:52:02.916Z,5.60
2019-03-05T00:54:45.055Z,5.60
2019-03-05T00:57:21.527Z,5.60
2019-03-05T00:59:54.783Z,5.50
2019-03-05T01:05:50.558Z,5.40
2019-03-05T01:08:19.735Z,5.50
2019-03-05T01:10:45.704Z,5.60
2019-03-05T01:13:15.002Z,5.70
2019-03-05T01:15:43.316Z,5.70
2019-03-05T01:18:10.875Z,5.70
2019-03-05T01:20:38.435Z,5.70
2019-03-05T01:23:05.974Z,5.70
2019-03-05T01:25:33.539Z,5.80
2019-03-05T01:28:01.078Z,5.80
2019-03-05T01:30:31.119Z,5.90
2019-03-05T01:32:58.668Z,5.90
2019-03-05T01:35:26.718Z,5.70
2019-03-05T01:37:54.255Z,5.70
2019-03-05T01:40:22.627Z,5.60
2019-03-05T01:42:50.957Z,5.80
2019-03-05T01:45:18.516Z,5.80
2019-03-05T01:47:46.077Z,5.80
2019-03-05T01:50:13.620Z,5.80
2019-03-05T01:52:41.284Z,5.80
2019-03-05T01:55:08.849Z,5.90
2019-03-05T01:57:36.407Z,5.90
2019-03-05T02:00:03.931Z,5.90
2019-03-05T02:02:31.468Z,5.90
2019-03-05T02:05:00.034Z,5.90
2019-03-05T02:07:27.592Z,5.90
2019-03-05T02:09:55.147Z,5.90
2019-03-05T02:12:22.710Z,6.00
2019-03-05T02:14:50.239Z,6.00
2019-03-05T02:17:17.790Z,6.00
2019-03-05T02:19:45.348Z,6.00
2019-03-05T02:22:12.881Z,5.90
2019-03-05T02:24:49.331Z,5.90
2019-03-05T02:27:37.474Z,5.80
2019-03-05T02:33:19.560Z,5.80
2019-03-05T02:39:08.375Z,5.90
2019-03-05T02:41:45.569Z,5.80
2019-03-05T02:44:16.766Z,5.90
2019-03-05T02:46:58.929Z,5.90
2019-03-05T02:49:30.321Z,6.00
2019-03-05T02:52:02.103Z,6.00
2019-03-05T02:57:37.294Z,6.10
2019-03-05T03:00:04.821Z,6.10
2019-03-05T03:02:37.315Z,6.10
2019-03-05T03:05:04.848Z,6.10
2019-03-05T03:07:32.422Z,6.10
2019-03-05T03:10:17.563Z,6.20
2019-03-05T03:12:45.868Z,6.30
2019-03-05T03:15:13.409Z,6.30
2019-03-05T03:17:41.069Z,6.20
2019-03-05T03:20:08.653Z,6.20
2019-03-05T03:22:36.213Z,6.20
2019-03-05T03:25:03.736Z,6.20
2019-03-05T03:27:31.269Z,6.20
2019-03-05T03:30:00.733Z,6.20
2019-03-05T03:32:28.188Z,6.20
2019-03-05T03:34:55.744Z,6.30
2019-03-05T03:37:23.289Z,6.30
2019-03-05T03:39:50.853Z,6.30
2019-03-05T03:42:18.386Z,6.30
2019-03-05T03:44:45.928Z,6.30
2019-03-05T03:47:13.480Z,6.40
2019-03-05T03:49:41.021Z,6.30
2019-03-05T03:52:08.580Z,6.20
2019-03-05T03:54:36.900Z,6.00
2019-03-05T03:57:04.431Z,6.00
2019-03-05T03:59:31.967Z,5.80
2019-03-05T04:01:59.572Z,5.50
2019-03-05T04:04:27.106Z,5.40
2019-03-05T04:06:54.667Z,5.30
2019-03-05T04:09:22.210Z,5.40
2019-03-05T04:11:49.766Z,5.40
2019-03-05T04:14:17.297Z,5.40
2019-03-05T04:16:44.833Z,5.50
2019-03-05T04:19:12.395Z,5.50
2019-03-05T04:21:39.931Z,5.40
2019-03-05T04:24:07.498Z,5.60
2019-03-05T04:26:35.035Z,5.60
2019-03-05T04:29:03.587Z,5.60
2019-03-05T04:31:31.115Z,5.50
2019-03-05T04:33:58.671Z,5.50
2019-03-05T04:36:26.198Z,5.40
2019-03-05T04:38:53.723Z,5.40
2019-03-05T04:41:22.254Z,5.40
2019-03-05T04:43:49.790Z,5.40
2019-03-05T04:49:17.955Z,5.50
2019-03-05T04:51:51.032Z,5.50
2019-03-05T04:54:18.583Z,5.50
2019-03-05T04:56:46.898Z,5.50
2019-03-05T04:59:14.455Z,5.50
2019-03-05T05:01:41.986Z,5.50
2019-03-05T05:04:09.507Z,5.40
2019-03-05T05:06:38.055Z,5.40
2019-03-05T05:09:05.637Z,5.50
2019-03-05T05:11:33.192Z,5.60
2019-03-05T05:14:00.723Z,5.60
2019-03-05T05:16:28.275Z,5.50
2019-03-05T05:18:55.831Z,5.40
2019-03-05T05:21:23.365Z,5.50
2019-03-05T05:23:50.923Z,5.60
2019-03-05T05:26:18.465Z,5.60
2019-03-05T05:28:46.018Z,5.80
2019-03-05T05:31:14.307Z,5.80
2019-03-05T05:33:41.863Z,5.80
2019-03-05T05:36:09.393Z,5.80
2019-03-05T05:38:36.949Z,5.80
2019-03-05T05:41:04.474Z,5.90
2019-03-05T05:43:32.030Z,5.80
2019-03-05T05:45:59.569Z,5.80
2019-03-05T05:48:27.122Z,5.80
2019-03-05T05:50:54.659Z,5.80
2019-03-05T05:53:22.329Z,5.90
2019-03-05T05:55:49.874Z,5.90
2019-03-05T05:58:17.429Z,5.90
2019-03-05T06:00:45.658Z,5.90
2019-03-05T06:03:13.194Z,5.90
2019-03-05T06:05:40.754Z,5.90
2019-03-05T06:08:08.283Z,5.90
2019-03-05T06:10:35.837Z,6.00
2019-03-05T06:13:03.371Z,5.90
2019-03-05T06:15:31.914Z,6.00
2019-03-05T06:17:59.440Z,6.00
2019-03-05T06:20:27.103Z,6.00
2019-03-05T06:22:54.626Z,6.00
2019-03-05T06:25:22.929Z,6.00
2019-03-05T06:27:50.488Z,6.00
2019-03-05T06:30:18.766Z,6.00
2019-03-05T06:32:47.278Z,6.00
2019-03-05T06:35:14.806Z,6.10
2019-03-05T06:37:42.355Z,6.10
2019-03-05T06:40:12.327Z,6.20
2019-03-05T06:42:39.880Z,6.20
2019-03-05T06:45:09.177Z,6.20
2019-03-05T06:47:36.734Z,6.20
2019-03-05T06:50:04.287Z,6.20
2019-03-05T06:52:31.811Z,6.20
2019-03-05T06:54:59.369Z,6.20
2019-03-05T06:57:26.899Z,6.20
2019-03-05T06:59:54.446Z,6.20
2019-03-05T07:02:22.735Z,6.30
2019-03-05T07:04:50.263Z,6.20
2019-03-05T07:07:18.590Z,6.40
2019-03-05T07:09:56.832Z,6.40
2019-03-05T07:12:26.198Z,6.40
2019-03-05T07:18:08.179Z,6.50
2019-03-05T07:23:55.096Z,6.50
2019-03-05T07:26:22.651Z,6.50
2019-03-05T07:28:50.947Z,6.50
2019-03-05T07:31:18.507Z,6.50
2019-03-05T07:33:46.036Z,6.60
2019-03-05T07:36:13.597Z,6.60
2019-03-05T07:38:41.148Z,6.60
2019-03-05T07:41:08.675Z,6.50
2019-03-05T07:43:36.857Z,6.50
2019-03-05T07:46:03.827Z,6.50
2019-03-05T07:48:32.142Z,6.40
2019-03-05T07:50:59.677Z,6.40
2019-03-05T07:53:27.232Z,6.50
2019-03-05T07:55:54.786Z,6.50
2019-03-05T07:58:22.321Z,6.60
2019-03-05T08:00:50.646Z,6.80
2019-03-05T08:03:18.199Z,6.80
2019-03-05T08:05:47.527Z,6.80
2019-03-05T08:08:26.825Z,6.80
2019-03-05T08:10:52.726Z,6.90
2019-03-05T08:13:20.287Z,7.00
2019-03-05T08:16:02.058Z,6.90
2019-03-05T08:18:20.975Z,6.90
2019-03-05T08:20:48.503Z,7.00
2019-03-05T08:23:16.054Z,7.00
2019-03-05T08:25:43.588Z,7.00
2019-03-05T08:28:11.139Z,7.10
2019-03-05T08:30:39.459Z,7.10
2019-03-05T08:33:07.018Z,7.10
2019-03-05T08:35:34.547Z,7.20
2019-03-05T08:38:02.098Z,7.20
2019-03-05T08:40:29.684Z,7.20
2019-03-05T08:42:57.207Z,7.30
2019-03-05T08:45:29.407Z,7.40
2019-03-05T08:47:52.341Z,7.40
2019-03-05T08:50:19.905Z,7.50
2019-03-05T08:52:47.433Z,7.50
2019-03-05T08:55:14.994Z,7.70
2019-03-05T08:57:43.286Z,7.40
2019-03-05T09:00:11.838Z,7.40
2019-03-05T09:02:47.986Z,7.50
2019-03-05T09:05:06.950Z,7.80
2019-03-05T09:07:35.279Z,7.90
2019-03-05T09:10:03.137Z,7.90
2019-03-05T09:12:30.698Z,7.80
2019-03-05T09:14:58.252Z,7.90
2019-03-05T09:17:25.826Z,7.70
2019-03-05T09:19:53.350Z,7.60
2019-03-05T09:22:20.907Z,7.40
2019-03-05T09:24:48.444Z,7.30
2019-03-05T09:27:16.765Z,7.60
2019-03-05T09:29:44.291Z,7.60
2019-03-05T09:32:11.849Z,7.60
2019-03-05T09:34:39.406Z,7.50
2019-03-05T09:37:06.938Z,7.70
2019-03-05T09:39:36.256Z,7.70
2019-03-05T09:42:03.827Z,7.70
2019-03-05T09:44:31.378Z,7.90
2019-03-05T09:46:58.903Z,8.10
2019-03-05T09:49:26.426Z,8.10
2019-03-05T09:51:53.979Z,8.10
2019-03-05T09:54:21.510Z,8.30
2019-03-05T09:56:49.075Z,8.20
2019-03-05T09:59:17.622Z,8.50
2019-03-05T10:01:45.154Z,8.80
2019-03-05T10:04:12.688Z,9.10
2019-03-05T10:06:40.247Z,9.60
2019-03-05T10:09:07.774Z,9.70
2019-03-05T10:11:36.323Z,9.70
2019-03-05T10:14:03.850Z,10.20
2019-03-05T10:16:31.426Z,10.10
2019-03-05T10:18:58.955Z,9.90
2019-03-05T10:21:26.515Z,9.90
2019-03-05T10:23:55.067Z,9.30
2019-03-05T10:26:22.623Z,9.40
2019-03-05T10:28:50.149Z,9.30
2019-03-05T10:31:18.769Z,9.30
2019-03-05T10:33:45.287Z,9.10
2019-03-05T10:36:12.823Z,8.80
2019-03-05T10:38:40.379Z,9.10
2019-03-05T10:41:08.717Z,9.00
2019-03-05T10:43:37.083Z,8.70
2019-03-05T10:46:04.617Z,8.70
2019-03-05T10:48:32.175Z,8.70
2019-03-05T10:50:59.711Z,8.90
2019-03-05T10:53:27.258Z,8.80
2019-03-05T10:55:55.555Z,8.00
2019-03-05T10:58:33.088Z,7.90
2019-03-05T11:00:50.714Z,8.10
2019-03-05T11:03:18.266Z,8.20
2019-03-05T11:05:45.813Z,8.10
2019-03-05T11:08:13.347Z,7.90
2019-03-05T11:10:41.238Z,8.00
2019-03-05T11:13:08.484Z,8.00
2019-03-05T11:15:36.047Z,8.00
2019-03-05T11:18:03.579Z,7.90
2019-03-05T11:20:31.146Z,7.90
2019-03-05T11:22:58.676Z,8.10
2019-03-05T11:25:26.230Z,8.20
2019-03-05T11:27:53.762Z,8.30
2019-03-05T11:30:22.204Z,8.50
2019-03-05T11:32:49.736Z,8.50
2019-03-05T11:35:17.331Z,8.20
2019-03-05T11:37:44.855Z,8.30
2019-03-05T11:40:20.768Z,8.40
2019-03-05T11:42:41.012Z,8.50
2019-03-05T11:45:11.724Z,8.40
2019-03-05T11:47:37.674Z,8.60
2019-03-05T11:50:05.204Z,8.70
2019-03-05T11:52:32.769Z,8.70
2019-03-05T11:55:00.343Z,8.60
2019-03-05T11:57:28.912Z,8.50
2019-03-05T11:59:56.467Z,8.50
2019-03-05T12:02:24.007Z,8.70
2019-03-05T12:04:51.551Z,8.90
2019-03-05T12:07:19.112Z,8.80
2019-03-05T12:09:46.643Z,8.90
2019-03-05T12:12:14.194Z,9.00
2019-03-05T12:14:41.733Z,9.00
2019-03-05T12:17:09.267Z,9.00
2019-03-05T12:19:36.816Z,9.00
2019-03-05T12:22:04.339Z,9.00
2019-03-05T12:24:31.890Z,9.00
2019-03-05T12:26:59.418Z,8.90
2019-03-05T12:29:26.971Z,8.90
2019-03-05T12:31:54.504Z,8.90
2019-03-05T12:34:22.050Z,8.90
2019-03-05T12:36:49.578Z,8.90
2019-03-05T12:39:17.900Z,8.90
2019-03-05T12:41:45.431Z,8.90
2019-03-05T12:44:12.987Z,8.90
2019-03-05T12:46:40.515Z,8.90
2019-03-05T12:49:08.038Z,8.80
2019-03-05T12:51:35.591Z,9.00
2019-03-05T12:54:03.125Z,9.00
2019-03-05T12:56:30.683Z,9.10
2019-03-05T12:58:58.241Z,9.10
2019-03-05T13:01:25.770Z,9.00
2019-03-05T13:03:53.291Z,9.00
2019-03-05T13:06:20.847Z,9.10
2019-03-05T13:08:48.377Z,9.10
2019-03-05T13:11:15.933Z,9.20
2019-03-05T13:13:43.463Z,9.10
2019-03-05T13:16:11.066Z,9.00
2019-03-05T13:18:38.613Z,9.10
2019-03-05T13:21:07.800Z,9.10
2019-03-05T13:23:34.510Z,9.20
2019-03-05T13:26:03.202Z,9.20
2019-03-05T13:28:29.658Z,9.20
2019-03-05T13:31:00.478Z,9.30
2019-03-05T13:33:24.788Z,9.20
2019-03-05T13:35:52.313Z,9.10
2019-03-05T13:38:19.859Z,9.10
2019-03-05T13:40:47.393Z,9.10
2019-03-05T13:43:14.947Z,9.20
2019-03-05T13:45:49.198Z,9.20
2019-03-05T13:51:28.418Z,9.30
2019-03-05T13:54:21.683Z,9.20
2019-03-05T13:59:51.776Z,9.30
2019-03-05T14:02:19.307Z,9.20
2019-03-05T14:04:55.479Z,9.20
2019-03-05T14:10:26.145Z,9.30
2019-03-05T14:12:51.231Z,9.20
2019-03-05T14:15:18.843Z,9.30
2019-03-05T14:17:47.137Z,9.40
2019-03-05T14:20:14.686Z,9.30
2019-03-05T14:22:42.249Z,9.40
2019-03-05T14:25:10.821Z,9.50
2019-03-05T14:27:38.508Z,9.50
2019-03-05T14:30:09.983Z,9.60
2019-03-05T14:32:37.550Z,9.70
2019-03-05T14:35:05.102Z,9.70
2019-03-05T14:37:32.677Z,9.80
2019-03-05T14:40:22.163Z,9.80
2019-03-05T14:42:28.601Z,9.80
2019-03-05T14:44:56.348Z,9.90
2019-03-05T14:47:23.908Z,10.00
2019-03-05T14:49:51.494Z,10.00
2019-03-05T14:52:19.818Z,9.80
2019-03-05T14:54:47.375Z,9.80
2019-03-05T14:57:14.954Z,9.80
2019-03-05T14:59:42.499Z,9.80
2019-03-05T15:02:10.053Z,9.90
2019-03-05T15:04:37.612Z,9.90
2019-03-05T15:07:05.225Z,9.80
2019-03-05T15:09:32.755Z,9.80
2019-03-05T15:12:00.304Z,9.90
2019-03-05T15:14:27.903Z,9.80
2019-03-05T15:16:56.222Z,9.70
2019-03-05T15:19:23.781Z,9.70
2019-03-05T15:21:51.374Z,9.80
2019-03-05T15:24:18.899Z,9.80
2019-03-05T15:26:46.490Z,9.90
2019-03-05T15:29:14.023Z,10.00
2019-03-05T15:31:41.627Z,10.00
2019-03-05T15:34:09.941Z,9.90
2019-03-05T15:36:37.541Z,9.90
2019-03-05T15:39:12.250Z,9.90
2019-03-05T15:41:39.931Z,10.00
2019-03-05T15:44:07.481Z,9.90
2019-03-05T15:46:35.081Z,9.90
2019-03-05T15:49:02.612Z,9.90
2019-03-05T15:51:30.204Z,10.00
2019-03-05T15:53:57.750Z,10.00
2019-03-05T15:56:25.307Z,9.90
2019-03-05T15:58:52.839Z,10.00
2019-03-05T16:01:22.591Z,10.00
2019-03-05T16:03:49.513Z,10.00
2019-03-05T16:06:17.054Z,10.00
2019-03-05T16:08:44.624Z,10.10
2019-03-05T16:11:12.171Z,10.10
2019-03-05T16:13:39.730Z,10.20
2019-03-05T16:16:07.267Z,10.20
2019-03-05T16:18:39.090Z,10.10
2019-03-05T16:21:03.331Z,10.10
2019-03-05T16:23:30.023Z,10.10
2019-03-05T16:25:57.571Z,10.20
2019-03-05T16:28:25.143Z,10.10
2019-03-05T16:30:58.139Z,10.10
2019-03-05T16:33:25.780Z,10.10
2019-03-05T16:38:56.765Z,10.10
2019-03-05T16:41:29.898Z,10.10
2019-03-05T16:44:13.254Z,10.10
2019-03-05T16:46:53.475Z,10.00
2019-03-05T16:49:23.766Z,10.10
2019-03-05T16:51:51.301Z,10.10
2019-03-05T16:54:33.746Z,10.10
2019-03-05T16:57:01.280Z,10.10
2019-03-05T16:59:33.725Z,10.10
2019-03-05T17:02:04.089Z,10.10
2019-03-05T17:04:33.252Z,10.10
2019-03-05T17:07:18.287Z,10.00
2019-03-05T17:09:51.452Z,10.00
2019-03-05T17:12:19.015Z,10.00
2019-03-05T17:14:46.543Z,10.00
2019-03-05T17:17:14.109Z,10.00
2019-03-05T17:19:41.644Z,10.00
2019-03-05T17:22:09.972Z,10.00
2019-03-05T17:24:37.511Z,10.00
2019-03-05T17:27:05.034Z,9.90
2019-03-05T17:29:32.585Z,9.90
2019-03-05T17:32:00.147Z,10.00
2019-03-05T17:34:28.494Z,10.10
2019-03-05T17:36:56.023Z,10.00
2019-03-05T17:39:23.587Z,10.10
2019-03-05T17:41:51.129Z,10.10
2019-03-05T17:44:18.692Z,10.10
2019-03-05T17:46:47.042Z,10.00
2019-03-05T17:49:14.715Z,10.00
2019-03-05T17:51:42.246Z,10.10
2019-03-05T17:54:09.935Z,10.10
2019-03-05T17:56:37.470Z,10.20
2019-03-05T17:59:05.057Z,10.20
2019-03-05T18:01:32.627Z,10.10
2019-03-05T18:04:00.163Z,10.20
2019-03-05T18:06:27.826Z,10.20
2019-03-05T18:08:55.367Z,10.20
2019-03-05T18:11:22.931Z,10.20
2019-03-05T18:13:50.474Z,10.30
2019-03-05T18:16:18.035Z,10.30
2019-03-05T18:18:45.578Z,10.30
2019-03-05T18:21:13.147Z,10.30
2019-03-05T18:23:40.691Z,10.30
2019-03-05T18:26:08.270Z,10.30
2019-03-05T18:28:35.830Z,10.30
2019-03-05T18:31:03.368Z,10.30
2019-03-05T18:33:30.943Z,10.30
2019-03-05T18:35:58.479Z,10.30
2019-03-05T18:38:26.040Z,10.40
2019-03-05T18:40:53.575Z,10.30
2019-03-05T18:43:21.142Z,10.40
2019-03-05T18:45:49.446Z,10.20
2019-03-05T18:48:16.982Z,10.20
2019-03-05T18:50:46.459Z,10.20
2019-03-05T18:53:14.034Z,10.20
2019-03-05T18:55:41.595Z,10.10
2019-03-05T18:58:09.901Z,10.10
2019-03-05T19:00:37.463Z,10.10
2019-03-05T19:03:06.815Z,10.10
2019-03-05T19:05:34.422Z,10.00
2019-03-05T19:08:01.979Z,10.00
2019-03-05T19:10:29.562Z,10.00
2019-03-05T19:12:57.114Z,10.00
2019-03-05T19:15:24.675Z,9.90
2019-03-05T19:17:52.239Z,10.00
2019-03-05T19:20:26.304Z,10.00
2019-03-05T19:22:53.901Z,9.90
2019-03-05T19:25:23.299Z,10.00
2019-03-05T19:27:50.857Z,9.90
2019-03-05T19:30:18.415Z,9.80
2019-03-05T19:32:45.944Z,9.90
2019-03-05T19:35:13.506Z,10.00
2019-03-05T19:37:42.038Z,10.00
2019-03-05T19:40:19.102Z,10.00
2019-03-05T19:42:46.687Z,10.10
2019-03-05T19:45:14.252Z,10.00
2019-03-05T19:47:41.790Z,10.10
2019-03-05T19:50:10.121Z,10.00
2019-03-05T19:52:37.657Z,10.00
2019-03-05T19:55:05.313Z,10.10
2019-03-05T19:57:32.803Z,10.10
2019-03-05T20:00:00.377Z,10.00
2019-03-05T20:02:27.935Z,10.00
2019-03-05T20:04:55.467Z,10.00
2019-03-05T20:07:23.032Z,10.00
2019-03-05T20:09:50.608Z,10.00
2019-03-05T20:12:18.169Z,10.00
2019-03-05T20:14:45.731Z,10.10
2019-03-05T20:17:13.271Z,10.00
2019-03-05T20:19:40.835Z,10.00
2019-03-05T20:22:08.371Z,10.00
2019-03-05T20:24:36.930Z,10.00
2019-03-05T20:27:04.459Z,9.90
2019-03-05T20:29:32.802Z,10.00
2019-03-05T20:32:00.351Z,10.00
2019-03-05T20:34:27.920Z,10.00
2019-03-05T20:36:55.499Z,10.00
2019-03-05T20:39:23.802Z,10.00
2019-03-05T20:41:51.368Z,10.00
2019-03-05T20:44:18.899Z,9.90
2019-03-05T20:46:46.470Z,10.00
2019-03-05T20:49:14.939Z,10.00
2019-03-05T20:51:42.619Z,9.90
2019-03-05T20:54:10.158Z,10.00
2019-03-05T20:56:37.851Z,10.00
2019-03-05T20:59:05.378Z,9.90
2019-03-05T21:01:32.910Z,9.80
2019-03-05T21:04:00.479Z,9.60
2019-03-05T21:06:28.013Z,9.70
2019-03-05T21:08:55.588Z,9.60
2019-03-05T21:11:23.123Z,9.50
2019-03-05T21:13:50.674Z,9.50
2019-03-05T21:16:18.209Z,9.40
2019-03-05T21:18:45.844Z,9.30
2019-03-05T21:21:13.375Z,9.30
2019-03-05T21:23:41.674Z,9.10
2019-03-05T21:26:09.235Z,9.10
2019-03-05T21:28:36.765Z,9.00
2019-03-05T21:31:04.326Z,9.00
2019-03-05T21:33:31.856Z,8.80
2019-03-05T21:35:59.412Z,8.70
2019-03-05T21:38:26.943Z,8.70
2019-03-05T21:40:54.494Z,8.50
2019-03-05T21:43:22.052Z,8.50
2019-03-05T21:45:49.579Z,8.40
2019-03-05T21:48:17.135Z,8.30
2019-03-05T21:50:44.695Z,8.20
2019-03-05T21:53:12.254Z,8.10
2019-03-05T21:55:39.788Z,7.90
2019-03-05T21:58:07.350Z,7.80
2019-03-05T22:00:36.514Z,7.60
2019-03-05T22:03:04.057Z,7.60
2019-03-05T22:05:31.617Z,7.60
2019-03-05T22:07:59.152Z,7.50
2019-03-05T22:10:26.713Z,7.40
2019-03-05T22:12:54.239Z,7.30
2019-03-05T22:15:37.390Z,7.30
2019-03-05T22:18:04.914Z,7.30
2019-03-05T22:20:32.463Z,7.20
2019-03-05T22:23:00.039Z,7.20
2019-03-05T22:25:29.097Z,7.20
2019-03-05T22:27:55.180Z,7.00
2019-03-05T22:30:25.476Z,7.00
2019-03-05T22:32:53.031Z,6.90
2019-03-05T22:35:20.607Z,6.90
2019-03-05T22:37:48.165Z,6.90
2019-03-05T22:40:15.803Z,6.90
2019-03-05T22:42:43.363Z,6.80
2019-03-05T22:45:21.319Z,6.70
2019-03-05T22:47:49.890Z,6.60
2019-03-05T22:50:17.449Z,6.50
2019-03-05T22:52:44.985Z,6.40
2019-03-05T22:55:12.538Z,6.40
2019-03-05T22:57:40.069Z,6.30
2019-03-05T23:03:09.139Z,6.20
2019-03-05T23:05:36.675Z,6.20
2019-03-05T23:08:04.267Z,6.10
2019-03-05T23:10:31.818Z,6.10
2019-03-05T23:12:59.403Z,6.00
2019-03-05T23:15:26.963Z,6.00
2019-03-05T23:17:55.278Z,5.90
2019-03-05T23:20:22.811Z,5.90
2019-03-05T23:22:50.366Z,5.90
2019-03-05T23:25:17.894Z,6.00
2019-03-05T23:27:45.475Z,6.00
2019-03-05T23:30:14.678Z,6.10
2019-03-05T23:32:42.230Z,6.20
2019-03-05T23:35:09.814Z,6.20
2019-03-05T23:37:37.368Z,6.20
2019-03-05T23:40:05.758Z,6.30
2019-03-05T23:42:33.282Z,6.00
2019-03-05T23:45:00.834Z,5.80
2019-03-05T23:47:28.367Z,5.80
2019-03-05T23:49:55.927Z,5.60
2019-03-05T23:52:24.219Z,5.70
2019-03-05T23:54:51.776Z,5.70
2019-03-05T23:57:20.079Z,5.90
2019-03-05T23:59:47.602Z,5.90
